Time;durP1;ratioP1;P1;durP2;ratioP2;P2;SDS_P1;SDS_P2;PMS_P1;PMS_P2;Temp;Humidity;BMP_temperature;BMP_pressure;BME280_temperature;BME280_humidity;BME280_pressure;Samples;Min_cycle;Max_cycle;Signal;HPM_P1;HPM_P2
2023/08/01 00:01:09;;;;;;;6.37;4.30;;;17.50;1.00;;;;;;5119864;28;20337;-45
2023/08/01 00:03:35;;;;;;;6.73;4.60;;;17.50;1.00;;;;;;5120031;28;20175;-44
2023/08/01 00:06:00;;;;;;;5.40;4.73;;;17.50;1.00;;;;;;5119716;28;20562;-45
2023/08/01 00:08:26;;;;;;;8.10;4.70;;;17.40;8.90;;;;;;5119610;28;20188;-44
2023/08/01 00:10:52;;;;;;;5.03;4.30;;;17.40;1.00;;;;;;5119908;28;20203;-45
2023/08/01 00:13:17;;;;;;;8.70;5.77;;;17.40;1.00;;;;;;5119668;28;20218;-43
2023/08/01 00:15:43;;;;;;;5.83;4.43;;;17.40;1.00;;;;;;5119237;28;20218;-45
2023/08/01 00:18:08;;;;;;;6.20;4.80;;;17.40;1.00;;;;;;5119488;28;20396;-47
2023/08/01 00:20:34;;;;;;;5.47;3.97;;;17.30;1.00;;;;;;5118745;28;20202;-44
2023/08/01 00:22:59;;;;;;;5.07;4.60;;;17.30;6.00;;;;;;5118847;28;20246;-43
2023/08/01 00:25:25;;;;;;;5.90;4.30;;;17.30;24.00;;;;;;5118748;28;20488;-46
2023/08/01 00:27:51;;;;;;;6.10;4.33;;;17.40;1.00;;;;;;5118657;28;20188;-46
2023/08/01 00:30:16;;;;;;;6.53;4.47;;;17.40;1.00;;;;;;5118063;28;20513;-44
2023/08/01 00:32:42;;;;;;;7.33;5.10;;;17.30;1.00;;;;;;5117707;28;20274;-45
2023/08/01 00:35:08;;;;;;;5.60;4.80;;;17.40;1.00;;;;;;5101229;28;20583;-45
2023/08/01 00:37:33;;;;;;;5.83;5.20;;;17.40;1.00;;;;;;5118923;28;20199;-47
2023/08/01 00:39:59;;;;;;;8.17;4.70;;;17.40;1.00;;;;;;5118793;28;20187;-43
2023/08/01 00:42:24;;;;;;;4.77;4.27;;;17.40;1.00;;;;;;5118673;28;20288;-45
2023/08/01 00:44:51;;;;;;;5.80;4.90;;;17.30;1.00;;;;;;5117518;28;20588;-42
2023/08/01 00:47:16;;;;;;;6.00;4.67;;;17.30;1.00;;;;;;5116936;28;20427;-46
2023/08/01 00:49:43;;;;;;;6.00;4.43;;;17.30;1.00;;;;;;5099264;28;20417;-46
2023/08/01 00:52:09;;;;;;;5.47;4.87;;;17.40;1.00;;;;;;5116958;28;20180;-47
2023/08/01 00:54:36;;;;;;;6.70;5.17;;;17.40;1.00;;;;;;5098963;28;20786;-45
2023/08/01 00:57:05;;;;;;;6.27;4.70;;;17.40;1.00;;;;;;5100241;28;20441;-43
2023/08/01 00:59:31;;;;;;;4.50;4.00;;;17.40;1.00;;;;;;5098168;28;20882;-49
2023/08/01 01:01:58;;;;;;;5.93;4.57;;;17.40;1.00;;;;;;5097562;28;20497;-45
2023/08/01 01:04:24;;;;;;;5.73;4.33;;;17.40;1.00;;;;;;5078936;28;20414;-46
2023/08/01 01:07:09;;;;;;;7.10;4.70;;;17.50;1.00;;;;;;5116588;28;20712;-46
2023/08/01 01:09:34;;;;;;;5.70;4.10;;;17.50;1.00;;;;;;5094408;28;20278;-43
2023/08/01 01:12:02;;;;;;;6.27;4.77;;;17.40;1.00;;;;;;5097159;28;20473;-45
2023/08/01 01:14:28;;;;;;;8.27;4.23;;;17.40;1.00;;;;;;5097380;28;20269;-44
2023/08/01 01:16:54;;;;;;;6.23;4.70;;;17.40;1.00;;;;;;5097077;28;20418;-44
2023/08/01 01:19:19;;;;;;;5.30;4.80;;;17.40;1.00;;;;;;5097641;28;20674;-43
2023/08/01 01:21:46;;;;;;;6.03;5.23;;;17.40;1.00;;;;;;5096279;28;20509;-48
2023/08/01 01:24:13;;;;;;;6.70;5.00;;;17.50;1.00;;;;;;5095729;28;20192;-42
2023/08/01 01:26:40;;;;;;;6.73;5.30;;;17.50;1.00;;;;;;5096608;28;20701;-44
2023/08/01 01:29:06;;;;;;;9.30;5.17;;;17.50;24.40;;;;;;5104769;28;20421;-46
2023/08/01 01:31:32;;;;;;;6.60;4.73;;;17.40;36.10;;;;;;5099284;28;20796;-45
2023/08/01 01:33:58;;;;;;;5.87;4.63;;;17.40;95.20;;;;;;5111640;28;20282;-43
2023/08/01 01:36:24;;;;;;;8.40;4.80;;;17.40;85.20;;;;;;5118107;28;20493;-45
2023/08/01 01:38:50;;;;;;;7.67;4.83;;;17.30;99.90;;;;;;5106215;28;20484;-43
2023/08/01 01:41:15;;;;;;;9.37;5.63;;;17.30;99.90;;;;;;5097051;28;20222;-44
2023/08/01 01:43:41;;;;;;;7.70;5.00;;;17.20;99.90;;;;;;5097345;28;20187;-45
2023/08/01 01:46:06;;;;;;;6.80;4.30;;;17.20;99.90;;;;;;5097253;28;20291;-46
2023/08/01 01:48:32;;;;;;;5.77;4.97;;;17.20;99.90;;;;;;5110426;28;20431;-47
2023/08/01 01:50:57;;;;;;;7.53;4.70;;;17.10;99.90;;;;;;5117194;28;20184;-43
2023/08/01 01:53:23;;;;;;;5.33;4.83;;;17.10;99.90;;;;;;5109069;28;20261;-45
2023/08/01 01:55:49;;;;;;;7.20;5.13;;;17.00;99.90;;;;;;5111974;28;20211;-45
2023/08/01 01:58:14;;;;;;;6.60;5.00;;;17.00;99.90;;;;;;5114796;28;20176;-44
2023/08/01 02:00:40;;;;;;;6.07;5.03;;;17.00;99.90;;;;;;5096004;28;20309;-44
2023/08/01 02:03:07;;;;;;;5.67;4.70;;;17.10;99.90;;;;;;5095938;28;20484;-47
2023/08/01 02:05:32;;;;;;;6.10;4.87;;;17.10;99.90;;;;;;5113214;28;20202;-45
2023/08/01 02:07:58;;;;;;;5.23;4.70;;;17.00;99.90;;;;;;5116175;28;20692;-46
2023/08/01 02:10:24;;;;;;;6.27;4.87;;;17.00;99.90;;;;;;5097824;28;20191;-46
2023/08/01 02:12:49;;;;;;;7.40;4.97;;;17.10;99.90;;;;;;5097330;28;20191;-43
2023/08/01 02:15:15;;;;;;;6.00;5.23;;;17.00;99.90;;;;;;5097124;28;20192;-44
2023/08/01 02:17:41;;;;;;;5.40;4.27;;;17.00;99.90;;;;;;5098565;28;20438;-44
2023/08/01 02:20:07;;;;;;;5.40;4.70;;;17.10;99.90;;;;;;5117832;28;20183;-45
2023/08/01 02:22:35;;;;;;;7.33;5.00;;;17.10;99.90;;;;;;5116154;28;20222;-46
2023/08/01 02:25:01;;;;;;;5.47;4.80;;;17.10;99.90;;;;;;5109826;28;20508;-43
2023/08/01 02:27:27;;;;;;;5.43;4.40;;;17.20;99.90;;;;;;5096324;28;20788;-45
2023/08/01 02:29:52;;;;;;;6.43;4.37;;;17.10;99.90;;;;;;5096417;28;20253;-44
2023/08/01 02:33:20;;;;;;;6.17;4.47;;;17.20;99.90;;;;;;5096456;28;20481;-48
2023/08/01 02:35:47;;;;;;;6.43;5.00;;;17.20;99.90;;;;;;5110257;28;20233;-44
2023/08/01 02:38:14;;;;;;;8.10;5.33;;;17.20;99.90;;;;;;5117339;28;20802;-47
2023/08/01 02:40:40;;;;;;;7.20;5.00;;;17.30;99.90;;;;;;5105134;28;20453;-46
2023/08/01 02:43:05;;;;;;;5.27;4.67;;;17.30;99.90;;;;;;5117121;28;20207;-44
2023/08/01 02:45:31;;;;;;;8.23;5.17;;;17.30;99.90;;;;;;5097839;28;20519;-44
2023/08/01 02:47:56;;;;;;;8.50;5.30;;;17.30;99.90;;;;;;5096722;28;20200;-44
2023/08/01 02:50:22;;;;;;;5.40;4.60;;;17.40;99.90;;;;;;5112058;28;20203;-43
2023/08/01 02:52:47;;;;;;;8.13;5.70;;;17.30;99.90;;;;;;5114905;28;20604;-44
2023/08/01 02:55:13;;;;;;;7.23;4.93;;;17.30;99.90;;;;;;5096680;28;20497;-47
2023/08/01 02:57:39;;;;;;;5.80;4.70;;;17.30;99.90;;;;;;5115378;28;20188;-44
2023/08/01 03:00:05;;;;;;;6.83;5.17;;;17.30;97.00;;;;;;5114774;28;20200;-46
2023/08/01 03:02:31;;;;;;;6.50;4.60;;;17.50;1.00;;;;;;5112788;28;20215;-45
2023/08/01 03:04:57;;;;;;;9.27;4.90;;;17.60;1.00;;;;;;5096265;28;20431;-46
2023/08/01 03:07:23;;;;;;;5.60;4.50;;;17.60;1.00;;;;;;5098131;28;20805;-46
2023/08/01 03:09:49;;;;;;;5.67;4.70;;;17.60;1.00;;;;;;5117130;28;20587;-46
2023/08/01 03:12:14;;;;;;;6.37;5.13;;;17.70;1.00;;;;;;5111680;28;20203;-44
2023/08/01 03:14:43;;;;;;;5.97;4.63;;;17.80;1.00;;;;;;5096240;28;20434;-44
2023/08/01 03:17:08;;;;;;;5.20;4.67;;;17.80;1.00;;;;;;5096407;28;20200;-48
2023/08/01 03:19:34;;;;;;;6.60;5.00;;;17.80;1.00;;;;;;5096255;28;20438;-45
2023/08/01 03:22:00;;;;;;;7.40;5.00;;;17.90;1.00;;;;;;5102171;28;20632;-44
2023/08/01 03:24:26;;;;;;;6.33;4.10;;;17.90;1.00;;;;;;5115363;28;20187;-44
2023/08/01 03:26:51;;;;;;;7.83;4.67;;;17.90;1.00;;;;;;5115848;28;20443;-44
2023/08/01 03:29:17;;;;;;;5.90;4.43;;;18.00;99.90;;;;;;5115294;28;20211;-45
2023/08/01 03:31:42;;;;;;;5.57;4.57;;;18.00;99.90;;;;;;5114091;28;20223;-47
2023/08/01 03:34:08;;;;;;;6.40;4.57;;;18.00;99.90;;;;;;5116910;28;20265;-45
2023/08/01 03:36:34;;;;;;;6.53;4.37;;;18.00;99.90;;;;;;5104931;28;20439;-43
2023/08/01 03:39:00;;;;;;;6.20;4.20;;;17.90;99.90;;;;;;5097158;28;20690;-45
2023/08/01 03:41:26;;;;;;;5.00;4.23;;;17.90;1.00;;;;;;5098615;28;20535;-43
2023/08/01 03:43:51;;;;;;;5.77;4.90;;;17.90;1.00;;;;;;5098894;28;20216;-47
2023/08/01 03:46:17;;;;;;;5.60;4.20;;;17.80;1.00;;;;;;5096358;28;20475;-49
2023/08/01 03:48:43;;;;;;;6.37;4.37;;;17.80;1.00;;;;;;5095232;28;20176;-44
2023/08/01 03:51:08;;;;;;;7.70;3.87;;;17.80;1.00;;;;;;5101115;28;20551;-43
2023/08/01 03:53:34;;;;;;;8.30;4.27;;;17.80;1.00;;;;;;5094840;28;20196;-46
2023/08/01 03:56:00;;;;;;;5.70;4.40;;;17.80;1.00;;;;;;5110201;28;20185;-44
2023/08/01 03:58:25;;;;;;;5.17;3.90;;;17.80;1.00;;;;;;5076928;28;20458;-45
2023/08/01 04:00:51;;;;;;;6.23;5.63;;;17.80;1.00;;;;;;5094338;28;20188;-46
2023/08/01 04:03:17;;;;;;;5.67;4.53;;;17.80;1.00;;;;;;5076982;28;20208;-44
2023/08/01 04:05:42;;;;;;;4.50;4.10;;;17.80;1.00;;;;;;5101718;28;20263;-45
2023/08/01 04:08:08;;;;;;;5.13;4.27;;;17.80;1.00;;;;;;5117601;28;20430;-45
2023/08/01 04:10:34;;;;;;;6.43;4.07;;;17.80;1.00;;;;;;5105670;28;20191;-46
2023/08/01 04:12:59;;;;;;;6.03;4.57;;;17.80;1.00;;;;;;5096674;28;20493;-45
2023/08/01 04:15:25;;;;;;;4.90;4.37;;;17.70;1.00;;;;;;5095882;28;20210;-46
2023/08/01 04:17:50;;;;;;;5.47;4.70;;;17.70;1.00;;;;;;5093726;28;20313;-44
2023/08/01 04:20:16;;;;;;;6.93;4.30;;;17.70;1.00;;;;;;5096259;28;20192;-45
2023/08/01 04:22:42;;;;;;;9.97;5.50;;;17.60;1.00;;;;;;5112874;28;20219;-43
2023/08/01 04:25:08;;;;;;;5.03;4.17;;;17.70;1.00;;;;;;5118655;28;20267;-43
2023/08/01 04:27:33;;;;;;;5.63;4.10;;;17.60;1.00;;;;;;5098140;28;20192;-45
2023/08/01 04:29:59;;;;;;;6.40;4.80;;;17.60;2.80;;;;;;5118312;28;20429;-43
2023/08/01 04:32:24;;;;;;;5.30;4.70;;;17.60;1.00;;;;;;5105467;28;20577;-46
2023/08/01 04:34:50;;;;;;;7.20;4.20;;;17.60;1.00;;;;;;5095739;28;20357;-42
2023/08/01 04:37:16;;;;;;;5.87;4.20;;;17.60;1.00;;;;;;5096416;28;20192;-45
2023/08/01 04:39:41;;;;;;;7.47;4.47;;;17.60;1.00;;;;;;5096927;28;20188;-46
2023/08/01 04:42:07;;;;;;;9.80;5.53;;;17.70;1.00;;;;;;5111193;28;20505;-48
2023/08/01 04:44:33;;;;;;;7.53;4.70;;;17.70;1.00;;;;;;5106589;28;20258;-44
2023/08/01 04:46:58;;;;;;;9.50;5.10;;;17.70;1.00;;;;;;5097661;28;20216;-45
2023/08/01 04:49:24;;;;;;;6.50;4.43;;;17.70;1.00;;;;;;5078964;28;20188;-46
2023/08/01 04:51:50;;;;;;;8.27;4.70;;;17.70;1.00;;;;;;5097705;28;20180;-45
2023/08/01 04:54:16;;;;;;;6.30;4.57;;;17.70;1.00;;;;;;5108944;28;20211;-45
2023/08/01 04:56:41;;;;;;;6.90;4.67;;;17.70;1.00;;;;;;5117600;28;20462;-46
2023/08/01 04:59:07;;;;;;;6.67;4.53;;;17.70;1.00;;;;;;5117339;28;20289;-46
2023/08/01 05:01:33;;;;;;;8.17;4.80;;;17.70;1.00;;;;;;5117538;28;20230;-43
2023/08/01 05:03:58;;;;;;;7.43;5.63;;;17.70;1.00;;;;;;5117943;28;20187;-44
2023/08/01 05:06:24;;;;;;;6.30;4.83;;;17.70;1.00;;;;;;5118507;28;20273;-43
2023/08/01 05:08:49;;;;;;;7.63;5.00;;;17.70;99.90;;;;;;5116968;28;20248;-45
2023/08/01 05:11:15;;;;;;;10.13;5.37;;;17.80;99.90;;;;;;5116389;28;20191;-45
2023/08/01 05:13:40;;;;;;;7.80;4.70;;;17.80;99.90;;;;;;5100109;28;20467;-46
2023/08/01 05:16:06;;;;;;;6.37;4.57;;;17.80;99.90;;;;;;5097125;28;20215;-44
2023/08/01 05:18:32;;;;;;;5.37;4.63;;;17.80;99.90;;;;;;5096054;28;20185;-45
2023/08/01 05:20:57;;;;;;;6.93;5.27;;;17.80;99.90;;;;;;5096477;28;20200;-46
2023/08/01 05:23:23;;;;;;;6.00;4.70;;;17.80;52.10;;;;;;5115899;28;20305;-43
2023/08/01 05:25:48;;;;;;;7.43;4.77;;;17.80;1.00;;;;;;5108543;28;20200;-45
2023/08/01 05:28:15;;;;;;;8.73;5.27;;;17.90;1.00;;;;;;5091972;28;20184;-47
2023/08/01 05:30:41;;;;;;;10.60;5.17;;;18.00;1.00;;;;;;5092252;28;20289;-44
2023/08/01 05:33:06;;;;;;;9.27;4.67;;;18.00;1.00;;;;;;5094318;28;20442;-45
2023/08/01 05:35:32;;;;;;;8.07;5.10;;;18.00;1.00;;;;;;5102363;28;20706;-45
2023/08/01 05:37:57;;;;;;;7.77;5.10;;;17.90;1.00;;;;;;5095607;28;20206;-43
2023/08/01 05:40:23;;;;;;;8.80;5.13;;;18.00;1.00;;;;;;5113039;28;20202;-44
2023/08/01 05:42:48;;;;;;;5.90;4.73;;;18.00;1.00;;;;;;5112705;28;20203;-43
2023/08/01 05:45:14;;;;;;;5.80;5.00;;;18.00;1.00;;;;;;5112362;28;20188;-44
2023/08/01 05:47:41;;;;;;;6.97;5.00;;;18.00;99.90;;;;;;5112871;28;20355;-46
2023/08/01 05:50:07;;;;;;;6.40;4.83;;;18.10;99.90;;;;;;5112925;28;20299;-46
2023/08/01 05:52:33;;;;;;;9.50;5.33;;;18.10;99.90;;;;;;5114041;28;20676;-43
2023/08/01 05:54:59;;;;;;;6.70;4.47;;;18.20;34.80;;;;;;5111494;28;20512;-44
2023/08/01 05:57:25;;;;;;;7.80;5.03;;;18.20;1.00;;;;;;5111413;28;20508;-43
2023/08/01 05:59:50;;;;;;;9.50;5.60;;;18.20;1.00;;;;;;5096740;28;20196;-46
2023/08/01 06:02:16;;;;;;;7.13;5.30;;;18.30;1.00;;;;;;5098012;28;20504;-46
2023/08/01 06:04:42;;;;;;;5.50;4.27;;;18.30;1.00;;;;;;5115383;28;20232;-44
2023/08/01 06:07:07;;;;;;;6.37;5.37;;;18.30;1.00;;;;;;5113170;28;20254;-44
2023/08/01 06:09:33;;;;;;;5.23;4.67;;;18.30;1.00;;;;;;5113060;28;20569;-44
2023/08/01 06:11:58;;;;;;;7.60;5.47;;;18.20;1.00;;;;;;5112681;28;20195;-45
2023/08/01 06:14:25;;;;;;;6.83;5.27;;;18.20;1.00;;;;;;5098425;28;20462;-49
2023/08/01 06:16:51;;;;;;;5.60;4.43;;;18.20;1.00;;;;;;5094119;28;20270;-45
2023/08/01 06:19:16;;;;;;;9.73;5.27;;;18.10;99.90;;;;;;5094773;28;20529;-49
2023/08/01 06:21:42;;;;;;;5.60;4.77;;;18.10;99.90;;;;;;5094523;28;20550;-45
2023/08/01 06:24:08;;;;;;;6.00;4.80;;;18.00;99.90;;;;;;5093649;28;20189;-45
2023/08/01 06:26:34;;;;;;;6.30;5.10;;;18.00;99.90;;;;;;5092992;28;20184;-44
2023/08/01 06:28:59;;;;;;;7.30;5.37;;;18.10;99.90;;;;;;5058349;28;20499;-49
2023/08/01 06:31:25;;;;;;;7.77;6.10;;;18.00;1.00;;;;;;5092586;28;20702;-45
2023/08/01 06:33:51;;;;;;;6.77;5.07;;;18.10;1.00;;;;;;5075856;28;20189;-47
2023/08/01 06:36:17;;;;;;;7.00;5.77;;;18.00;99.90;;;;;;5073476;28;20427;-46
2023/08/01 06:38:43;;;;;;;6.67;5.97;;;18.00;1.00;;;;;;5056292;28;20224;-47
2023/08/01 06:41:09;;;;;;;10.73;5.70;;;17.90;1.00;;;;;;5055559;28;20450;-48
2023/08/01 06:43:37;;;;;;;7.40;5.50;;;17.90;1.00;;;;;;5073924;28;20438;-45
2023/08/01 06:46:03;;;;;;;6.63;5.10;;;17.80;1.00;;;;;;5072259;28;20435;-44
2023/08/01 06:48:28;;;;;;;9.00;5.80;;;17.90;1.00;;;;;;5071817;28;20810;-45
2023/08/01 06:50:54;;;;;;;7.37;5.80;;;17.80;99.90;;;;;;5071057;28;20505;-46
2023/08/01 06:53:21;;;;;;;6.83;5.60;;;17.80;1.00;;;;;;5071642;28;20460;-44
2023/08/01 06:55:46;;;;;;;7.50;6.57;;;17.80;1.00;;;;;;5071619;28;20181;-47
2023/08/01 06:58:12;;;;;;;8.77;6.27;;;17.80;1.00;;;;;;5070762;28;20426;-44
2023/08/01 07:00:38;;;;;;;9.57;7.00;;;17.80;1.00;;;;;;5073498;28;20269;-45
2023/08/01 07:03:03;;;;;;;8.10;6.83;;;17.90;99.90;;;;;;5072644;28;20221;-46
2023/08/01 07:05:29;;;;;;;7.93;6.97;;;17.90;99.90;;;;;;5072647;28;20576;-48
2023/08/01 07:07:54;;;;;;;7.63;6.67;;;18.00;4.00;;;;;;5071089;28;20327;-43
2023/08/01 07:10:20;;;;;;;8.50;6.90;;;18.00;1.00;;;;;;5074021;28;20181;-47
2023/08/01 07:12:46;;;;;;;12.10;6.50;;;18.00;1.00;;;;;;5073713;28;20451;-46
2023/08/01 07:15:11;;;;;;;11.07;7.67;;;18.00;97.00;;;;;;5074757;28;20215;-43
2023/08/01 07:17:37;;;;;;;7.83;6.13;;;18.00;99.90;;;;;;5055736;28;20221;-47
2023/08/01 07:20:03;;;;;;;6.80;5.73;;;18.00;31.10;;;;;;5072087;28;20228;-46
2023/08/01 07:22:28;;;;;;;8.40;6.23;;;17.80;99.90;;;;;;5073458;28;20274;-44
2023/08/01 07:24:54;;;;;;;10.00;6.07;;;17.80;1.00;;;;;;5074221;28;20177;-43
2023/08/01 07:27:20;;;;;;;9.73;7.07;;;17.70;43.50;;;;;;5073555;28;20247;-45
2023/08/01 07:29:46;;;;;;;7.57;5.70;;;17.70;1.00;;;;;;5074548;28;20228;-45
2023/08/01 07:32:11;;;;;;;6.10;5.50;;;17.70;31.30;;;;;;5075551;28;20431;-43
2023/08/01 07:34:37;;;;;;;7.10;5.30;;;17.70;1.00;;;;;;5075349;28;20635;-43
2023/08/01 07:37:03;;;;;;;7.60;5.13;;;17.60;48.20;;;;;;5074827;28;20188;-44
2023/08/01 07:39:28;;;;;;;5.80;5.00;;;17.60;99.90;;;;;;5075716;28;20181;-46
2023/08/01 07:41:55;;;;;;;6.87;5.17;;;17.50;99.90;;;;;;5076191;28;20298;-44
2023/08/01 07:44:21;;;;;;;6.10;4.87;;;17.40;1.00;;;;;;5077184;28;20361;-44
2023/08/01 07:46:47;;;;;;;5.00;4.13;;;17.20;1.00;;;;;;5076935;28;20552;-46
2023/08/01 07:49:12;;;;;;;6.10;4.20;;;17.10;4.00;;;;;;5076636;28;20186;-44
2023/08/01 07:51:38;;;;;;;4.80;3.63;;;17.00;99.90;;;;;;5076412;28;20185;-43
2023/08/01 07:54:04;;;;;;;4.60;3.90;;;16.90;99.90;;;;;;5076307;28;20274;-46
2023/08/01 07:56:29;;;;;;;4.63;3.47;;;16.80;99.90;;;;;;5077217;28;20181;-43
2023/08/01 07:58:55;;;;;;;6.83;3.90;;;16.80;99.90;;;;;;5059508;28;20235;-44
2023/08/01 08:01:20;;;;;;;5.00;4.00;;;16.80;99.90;;;;;;5075771;28;20354;-47
2023/08/01 08:03:46;;;;;;;7.03;4.33;;;16.80;99.90;;;;;;5075012;28;20184;-44
2023/08/01 08:06:12;;;;;;;5.23;3.80;;;16.80;99.90;;;;;;5074807;28;20542;-44
2023/08/01 08:08:37;;;;;;;5.27;3.50;;;16.80;99.90;;;;;;5074084;28;20177;-43
2023/08/01 08:11:03;;;;;;;6.17;3.63;;;16.80;99.90;;;;;;5074987;28;20185;-45
2023/08/01 08:13:29;;;;;;;5.40;3.50;;;16.70;1.00;;;;;;5076433;28;20318;-43
2023/08/01 08:15:58;;;;;;;4.70;3.97;;;16.70;1.00;;;;;;5076595;28;20793;-43
2023/08/01 08:18:24;;;;;;;5.87;3.53;;;16.60;1.00;;;;;;5059201;28;20173;-46
2023/08/01 08:20:49;;;;;;;5.20;4.07;;;16.70;1.00;;;;;;5076512;28;20879;-43
2023/08/01 08:23:15;;;;;;;5.50;4.07;;;16.70;1.00;;;;;;5077752;28;20475;-46
2023/08/01 08:25:42;;;;;;;8.30;4.77;;;16.80;1.00;;;;;;5077053;28;20189;-45
2023/08/01 08:28:08;;;;;;;4.63;4.13;;;16.80;1.00;;;;;;5058283;28;20187;-43
2023/08/01 08:30:34;;;;;;;4.97;4.57;;;16.90;1.00;;;;;;5075348;28;21001;-45
2023/08/01 08:33:03;;;;;;;5.83;4.30;;;16.90;1.00;;;;;;5076626;28;20443;-47
2023/08/01 08:35:33;;;;;;;4.43;3.90;;;16.90;1.00;;;;;;5076721;28;20479;-46
2023/08/01 08:38:02;;;;;;;4.73;3.60;;;16.90;1.00;;;;;;5076093;28;20459;-43
2023/08/01 08:40:27;;;;;;;4.93;3.80;;;17.10;1.00;;;;;;5076145;28;20700;-46
2023/08/01 08:42:54;;;;;;;9.50;4.07;;;17.40;1.00;;;;;;5075506;28;20466;-44
2023/08/01 08:45:20;;;;;;;4.77;3.53;;;17.70;99.90;;;;;;5075999;28;20208;-45
2023/08/01 08:47:51;;;;;;;5.40;3.90;;;17.60;99.90;;;;;;5076258;28;20706;-47
2023/08/01 08:50:16;;;;;;;5.83;3.50;;;17.60;99.90;;;;;;5058467;28;20548;-47
2023/08/01 08:52:42;;;;;;;6.23;3.50;;;17.50;99.90;;;;;;5076284;28;20872;-45
2023/08/01 08:55:08;;;;;;;6.10;3.90;;;17.50;99.90;;;;;;5076422;28;20225;-45
2023/08/01 08:57:34;;;;;;;3.77;3.07;;;17.50;1.00;;;;;;5075952;28;20415;-45
2023/08/01 09:00:04;;;;;;;4.60;3.20;;;17.50;1.00;;;;;;5059625;28;20470;-45
2023/08/01 09:02:30;;;;;;;3.90;3.20;;;17.40;1.00;;;;;;5073796;28;20220;-47
2023/08/01 09:04:57;;;;;;;3.97;3.17;;;17.50;1.00;;;;;;5075598;28;20505;-45
2023/08/01 09:07:24;;;;;;;4.80;3.50;;;17.50;1.00;;;;;;5076282;28;20197;-46
2023/08/01 09:09:50;;;;;;;3.70;2.87;;;17.70;1.00;;;;;;5075193;28;20443;-44
2023/08/01 09:12:15;;;;;;;5.60;2.50;;;17.70;1.00;;;;;;5076061;28;20523;-42
2023/08/01 09:14:42;;;;;;;3.93;1.87;;;17.80;99.90;;;;;;5075432;28;20189;-44
2023/08/01 09:17:09;;;;;;;3.23;2.83;;;17.80;99.90;;;;;;5058513;28;20216;-44
2023/08/01 09:19:34;;;;;;;2.97;2.50;;;17.80;99.90;;;;;;5039500;28;20563;-44
2023/08/01 09:22:00;;;;;;;4.90;2.53;;;17.80;99.90;;;;;;5054975;28;20831;-46
2023/08/01 09:24:26;;;;;;;3.07;2.03;;;17.90;99.90;;;;;;5055389;28;20248;-45
2023/08/01 09:26:52;;;;;;;4.63;2.47;;;17.90;99.90;;;;;;5073220;28;20500;-43
2023/08/01 09:29:19;;;;;;;2.97;2.03;;;17.90;99.90;;;;;;5072883;28;20442;-44
2023/08/01 09:31:45;;;;;;;3.50;2.23;;;17.90;99.90;;;;;;5072702;28;20200;-44
2023/08/01 09:34:26;;;;;;;2.93;1.90;;;17.80;1.00;;;;;;5079694;28;20887;-44
2023/08/01 09:36:58;;;;;;;3.80;1.40;;;17.90;1.00;;;;;;5115243;28;20187;-46
2023/08/01 09:39:23;;;;;;;2.03;1.23;;;17.80;1.00;;;;;;5115428;28;20425;-45
2023/08/01 09:41:56;;;;;;;2.33;1.30;;;17.80;99.90;;;;;;5114053;28;20477;-44
2023/08/01 09:44:22;;;;;;;1.90;0.93;;;17.70;1.00;;;;;;5080855;28;20287;-45
2023/08/01 09:47:03;;;;;;;3.07;1.23;;;17.80;1.00;;;;;;5115774;28;20495;-44
2023/08/01 09:49:29;;;;;;;1.53;1.07;;;18.00;99.90;;;;;;5113416;28;20247;-44
2023/08/01 09:51:55;;;;;;;1.60;1.10;;;18.10;99.90;;;;;;5113659;28;20425;-48
2023/08/01 09:54:21;;;;;;;2.13;1.00;;;18.20;99.90;;;;;;5114268;28;20449;-42
2023/08/01 09:56:51;;;;;;;1.43;1.00;;;18.30;99.90;;;;;;5114962;28;20537;-43
2023/08/01 09:59:21;;;;;;;2.07;0.80;;;18.50;99.90;;;;;;5115222;28;20919;-44
2023/08/01 10:01:50;;;;;;;2.40;0.70;;;18.70;99.90;;;;;;5115309;28;20545;-45
2023/08/01 10:04:20;;;;;;;1.83;0.70;;;18.60;99.90;;;;;;5116221;28;20621;-44
2023/08/01 10:06:50;;;;;;;1.90;0.80;;;18.70;99.90;;;;;;5116697;28;20413;-43
2023/08/01 10:09:16;;;;;;;1.50;1.00;;;18.70;99.90;;;;;;5095438;28;20811;-45
2023/08/01 10:11:42;;;;;;;1.00;0.60;;;18.80;99.90;;;;;;5114952;28;20516;-45
2023/08/01 10:14:07;;;;;;;2.20;0.73;;;18.60;99.90;;;;;;5115174;28;20849;-45
2023/08/01 10:16:34;;;;;;;1.90;1.20;;;18.70;99.90;;;;;;5097947;28;20183;-47
2023/08/01 10:19:00;;;;;;;2.17;0.70;;;18.70;99.90;;;;;;5088025;28;20207;-44
2023/08/01 10:21:27;;;;;;;1.83;0.80;;;18.80;99.90;;;;;;5096111;28;20441;-46
2023/08/01 10:23:53;;;;;;;4.03;1.40;;;18.80;99.90;;;;;;5114776;28;20573;-43
2023/08/01 10:26:19;;;;;;;1.30;0.90;;;18.90;99.90;;;;;;5115396;28;20574;-44
2023/08/01 10:28:52;;;;;;;1.60;0.87;;;19.10;99.90;;;;;;5115058;28;20867;-44
2023/08/01 10:31:19;;;;;;;1.63;0.73;;;19.30;56.30;;;;;;5115334;28;20447;-44
2023/08/01 10:33:48;;;;;;;1.20;0.70;;;19.80;4.40;;;;;;5113827;28;20799;-45
2023/08/01 10:36:18;;;;;;;1.70;1.03;;;19.90;1.00;;;;;;5109701;28;20482;-44
2023/08/01 10:38:50;;;;;;;1.67;0.80;;;20.00;1.00;;;;;;5115081;28;20426;-43
2023/08/01 10:41:26;;;;;;;3.47;0.90;;;20.20;1.00;;;;;;5115043;28;20428;-45
2023/08/01 10:44:08;;;;;;;2.13;1.10;;;20.70;1.00;;;;;;5112389;28;20425;-45
2023/08/01 10:46:52;;;;;;;2.00;1.20;;;21.40;1.00;;;;;;5111997;28;20421;-47
2023/08/01 10:49:19;;;;;;;1.70;0.90;;;22.30;99.90;;;;;;5110432;28;20429;-51
2023/08/01 10:51:45;;;;;;;1.70;0.90;;;23.50;6.40;;;;;;5111449;28;20834;-50
2023/08/01 10:54:23;;;;;;;2.23;0.90;;;24.10;1.00;;;;;;5103879;28;20916;-51
2023/08/01 10:56:50;;;;;;;1.20;0.63;;;23.80;1.00;;;;;;5090232;28;20509;-49
2023/08/01 10:59:16;;;;;;;1.30;0.83;;;23.40;5.00;;;;;;5091304;28;20422;-49
2023/08/01 11:01:50;;;;;;;1.30;0.80;;;23.10;99.90;;;;;;5092519;28;20467;-48
2023/08/01 11:04:21;;;;;;;1.40;0.90;;;22.20;82.60;;;;;;5092460;28;20874;-48
2023/08/01 11:06:48;;;;;;;1.50;1.20;;;22.00;99.90;;;;;;5092031;28;20415;-53
2023/08/01 11:09:21;;;;;;;1.73;1.30;;;22.40;1.00;;;;;;5091029;28;20427;-52
2023/08/01 11:11:52;;;;;;;2.60;1.33;;;23.40;1.00;;;;;;5090909;28;20422;-53
2023/08/01 11:14:22;;;;;;;1.70;1.00;;;24.00;1.00;;;;;;5091145;28;20418;-49
2023/08/01 11:16:48;;;;;;;2.43;1.20;;;24.50;99.90;;;;;;5074126;28;20434;-51
2023/08/01 11:19:24;;;;;;;1.60;1.10;;;24.50;99.90;;;;;;5074249;28;20439;-50
2023/08/01 11:21:51;;;;;;;1.10;0.80;;;25.40;77.90;;;;;;5097771;28;20608;-50
2023/08/01 11:24:18;;;;;;;1.60;1.17;;;25.90;1.00;;;;;;5112847;28;20405;-52
2023/08/01 11:26:44;;;;;;;1.60;1.30;;;25.90;1.00;;;;;;5113018;28;20444;-50
2023/08/01 11:29:11;;;;;;;1.70;1.20;;;27.00;1.00;;;;;;5081640;28;20449;-51
2023/08/01 11:31:37;;;;;;;1.73;1.33;;;27.60;1.00;;;;;;5092154;28;20423;-50
2023/08/01 11:34:03;;;;;;;2.00;1.40;;;27.50;1.00;;;;;;5098478;28;20436;-53
2023/08/01 11:36:29;;;;;;;1.80;1.50;;;27.50;1.00;;;;;;5112674;28;20422;-51
2023/08/01 11:38:59;;;;;;;1.60;1.30;;;27.90;1.00;;;;;;5113412;28;20250;-49
2023/08/01 11:41:28;;;;;;;1.60;1.20;;;27.40;1.00;;;;;;5094204;28;20570;-52
2023/08/01 11:43:54;;;;;;;2.00;1.30;;;27.70;1.00;;;;;;5111869;28;20429;-52
2023/08/01 11:46:21;;;;;;;1.90;1.47;;;28.10;1.00;;;;;;5111688;28;20427;-51
2023/08/01 11:48:47;;;;;;;1.73;1.20;;;27.90;1.00;;;;;;5112514;28;20406;-48
2023/08/01 11:51:13;;;;;;;1.70;1.10;;;27.60;1.00;;;;;;5077561;28;20444;-50
2023/08/01 11:53:39;;;;;;;2.87;1.50;;;28.00;1.00;;;;;;5094686;28;20261;-51
2023/08/01 11:56:05;;;;;;;2.07;1.30;;;28.20;1.00;;;;;;5114215;28;20187;-52
2023/08/01 11:58:35;;;;;;;2.10;1.40;;;28.70;1.00;;;;;;5114477;28;20591;-54
2023/08/01 12:01:13;;;;;;;1.93;1.53;;;28.40;1.00;;;;;;5115443;28;20410;-51
2023/08/01 12:03:46;;;;;;;2.70;1.43;;;27.80;1.00;;;;;;5116523;28;20421;-52
2023/08/01 12:06:13;;;;;;;2.90;1.53;;;26.80;1.00;;;;;;5114572;28;20418;-53
2023/08/01 12:08:40;;;;;;;2.50;1.40;;;26.20;1.00;;;;;;5115622;28;20468;-51
2023/08/01 12:11:16;;;;;;;1.80;1.53;;;26.20;1.00;;;;;;5115537;28;20704;-49
2023/08/01 12:13:42;;;;;;;1.77;1.20;;;26.60;1.00;;;;;;5096888;28;20526;-50
2023/08/01 12:16:07;;;;;;;3.40;1.37;;;27.00;1.00;;;;;;5115486;28;20402;-52
2023/08/01 12:18:33;;;;;;;2.10;1.30;;;27.20;1.00;;;;;;5114280;28;20184;-49
2023/08/01 12:20:59;;;;;;;2.67;1.17;;;27.50;1.00;;;;;;5115956;28;20236;-53
2023/08/01 12:23:24;;;;;;;3.33;1.17;;;27.40;1.00;;;;;;5115026;28;20219;-53
2023/08/01 12:25:50;;;;;;;3.03;2.00;;;27.60;1.00;;;;;;5113884;28;20188;-50
2023/08/01 12:28:15;;;;;;;2.13;1.57;;;26.80;1.00;;;;;;5104173;28;20271;-53
2023/08/01 12:30:42;;;;;;;1.60;1.30;;;26.40;1.00;;;;;;5114760;28;20192;-53
2023/08/01 12:33:08;;;;;;;2.10;1.57;;;25.70;1.00;;;;;;5114332;28;20187;-53
2023/08/01 12:35:34;;;;;;;1.63;1.20;;;25.80;1.00;;;;;;5115360;28;20659;-54
2023/08/01 12:37:59;;;;;;;2.87;1.60;;;25.80;1.00;;;;;;5115379;28;20556;-53
2023/08/01 12:40:26;;;;;;;2.20;1.50;;;26.10;1.00;;;;;;5097916;28;20188;-53
2023/08/01 12:42:52;;;;;;;2.23;1.33;;;26.60;1.00;;;;;;5114936;28;20210;-53
2023/08/01 12:45:18;;;;;;;2.10;1.47;;;26.90;1.00;;;;;;5114125;28;20889;-54
2023/08/01 12:47:43;;;;;;;2.97;1.57;;;26.80;1.00;;;;;;5096574;28;20187;-52
2023/08/01 12:50:09;;;;;;;2.43;1.80;;;27.20;1.00;;;;;;5114345;28;20433;-51